OK20 weather

Sageeyah Airfield
Claremore, Oklahoma, United States

Public forecast

Using degrees Fahrenheit for public forecast. Weather courtesy of forecast.io.

METAR (pilot weather report)

Closest report is Claremore Regional Airport, 9.8 nm (18.2 km) SE. Retrieved 2019/04/23 17:35 UTC (11 minutes ago):

KGCM 231735Z AUTO 05003KT 10SM SCT024 BKN048 BKN055 17/13 A3006 RMK AO2

TAF (pilot weather forecast)

Closest forecast is Tulsa International Airport, 16.1 nm (29.8 km) SW. Retrieved 2019/04/23 12:42 UTC (5 hours ago):

TAF KTUL 231140Z 2312/2412 36007KT P6SM VCSH BKN030 TEMPO 2314/2318 3SM TSRA BR OVC015CB FM231800 36010KT P6SM VCSH OVC015 FM240100 36006KT P6SM OVC015